Time;durP1;ratioP1;P1;durP2;ratioP2;P2;SDS_P1;SDS_P2;PMS_P1;PMS_P2;Temp;Humidity;BMP_temperature;BMP_pressure;BME280_temperature;BME280_humidity;BME280_pressure;Samples;Min_cycle;Max_cycle;Signal;HPM_P1;HPM_P2
2022/10/15 00:04:52;;;;;;;24.60;12.82;;;;;;;-147.20;100.00;63046.97;31181397;28;20054;-62
2022/10/15 00:19:53;;;;;;;24.67;14.07;;;;;;;-147.20;100.00;63046.97;31180552;28;22266;-62
2022/10/15 00:34:53;;;;;;;25.42;13.70;;;;;;;-147.20;100.00;63046.97;31195880;28;20122;-64
2022/10/15 00:50:08;;;;;;;22.42;14.15;;;;;;;-147.20;100.00;63046.97;31200239;28;27988;-63
2022/10/15 01:05:09;;;;;;;22.20;13.27;;;;;;;-147.20;100.00;63046.97;31198820;28;20050;-62
2022/10/15 01:20:34;;;;;;;25.48;14.40;;;;;;;-147.20;100.00;63046.97;31197882;28;20173;-62
2022/10/15 01:36:03;;;;;;;25.77;15.13;;;;;;;-147.20;100.00;63046.97;31196397;28;20423;-62
2022/10/15 01:51:05;;;;;;;31.23;15.15;;;;;;;-147.20;100.00;63046.97;31197592;28;20051;-62
2022/10/15 02:06:12;;;;;;;27.45;16.40;;;;;;;-147.20;100.00;63046.97;31193644;28;20496;-64
2022/10/15 02:21:40;;;;;;;27.92;15.73;;;;;;;-147.20;100.00;63046.97;31192174;28;20383;-65
2022/10/15 02:36:41;;;;;;;26.08;14.60;;;;;;;-147.20;100.00;63046.97;31190480;28;20038;-63
2022/10/15 02:51:41;;;;;;;28.35;13.85;;;;;;;-147.20;100.00;63046.97;31189152;28;20038;-62
2022/10/15 03:06:42;;;;;;;27.92;15.23;;;;;;;-147.20;100.00;63046.97;31186508;28;20062;-61
2022/10/15 03:21:42;;;;;;;27.25;15.68;;;;;;;-147.20;100.00;63046.97;31185927;28;20096;-62
2022/10/15 03:36:43;;;;;;;27.40;15.20;;;;;;;-147.20;100.00;63046.97;31183333;28;20034;-62
2022/10/15 03:51:43;;;;;;;27.73;15.80;;;;;;;-147.20;100.00;63046.97;31182259;28;20435;-61
2022/10/15 04:06:46;;;;;;;28.98;16.25;;;;;;;-147.20;100.00;63046.97;31180378;28;24981;-62
2022/10/15 04:21:46;;;;;;;28.08;16.08;;;;;;;-147.20;100.00;63046.97;31179709;28;20090;-63
2022/10/15 04:36:47;;;;;;;25.65;15.30;;;;;;;-147.20;100.00;63046.97;31179354;28;20120;-63
2022/10/15 04:51:47;;;;;;;26.90;16.13;;;;;;;-147.20;100.00;63046.97;31174335;28;20121;-62
2022/10/15 05:06:48;;;;;;;32.60;15.23;;;;;;;-147.20;100.00;63046.97;31174355;28;20062;-62
2022/10/15 05:21:48;;;;;;;27.77;16.48;;;;;;;-147.20;100.00;63046.97;31190181;28;20042;-65
2022/10/15 05:36:48;;;;;;;32.00;16.05;;;;;;;-147.20;100.00;63046.97;31193873;28;20214;-64
2022/10/15 05:51:49;;;;;;;32.92;15.45;;;;;;;-147.20;100.00;63046.97;31192973;28;20590;-63
2022/10/15 06:06:49;;;;;;;28.92;16.52;;;;;;;-147.20;100.00;63046.97;31191794;28;20061;-63
2022/10/15 06:21:49;;;;;;;27.75;15.18;;;;;;;-147.20;100.00;63046.97;31189874;28;20026;-63
2022/10/15 06:36:50;;;;;;;30.48;15.63;;;;;;;-147.20;100.00;63046.97;31188546;28;20030;-63
2022/10/15 06:51:50;;;;;;;30.15;16.65;;;;;;;-147.20;100.00;63046.97;31272321;28;20112;-66
2022/10/15 07:06:50;;;;;;;28.25;15.73;;;;;;;-147.20;100.00;63046.97;31431596;28;21177;-62
2022/10/15 07:21:50;;;;;;;33.17;17.17;;;;;;;-147.20;100.00;63046.97;31429978;28;20466;-61
2022/10/15 07:36:51;;;;;;;26.50;16.02;;;;;;;-147.20;100.00;63046.97;31366021;28;25034;-62
2022/10/15 07:51:51;;;;;;;27.48;15.40;;;;;;;-147.20;100.00;63046.97;31414166;28;22068;-61
2022/10/15 08:06:51;;;;;;;28.92;15.65;;;;;;;-147.20;100.00;63046.97;31306324;28;20054;-64
2022/10/15 08:21:52;;;;;;;27.92;16.17;;;;;;;-147.20;100.00;63046.97;31311313;28;20037;-64
2022/10/15 08:36:52;;;;;;;28.67;16.10;;;;;;;-147.20;100.00;63046.97;31327003;28;20034;-63
2022/10/15 08:52:01;;;;;;;29.40;17.85;;;;;;;-147.20;100.00;63046.97;31310583;28;20042;-59
2022/10/15 09:07:11;;;;;;;27.25;16.63;;;;;;;-147.20;100.00;63046.97;31323280;28;20084;-68
2022/10/15 09:22:15;;;;;;;29.65;17.77;;;;;;;-147.20;100.00;63046.97;31328713;28;20069;-66
2022/10/15 09:37:24;;;;;;;23.17;14.38;;;;;;;-147.20;100.00;63046.97;31316714;28;20465;-66
2022/10/15 09:52:43;;;;;;;19.02;10.85;;;;;;;-147.20;100.00;63046.97;31315766;28;20033;-66
2022/10/15 10:07:43;;;;;;;20.40;13.55;;;;;;;-147.20;100.00;63046.97;31309869;28;20049;-65
2022/10/15 10:22:48;;;;;;;16.00;9.80;;;;;;;-147.20;100.00;63046.97;31308023;28;20026;-66
2022/10/15 10:37:49;;;;;;;17.55;10.32;;;;;;;-147.20;100.00;63046.97;31311221;28;20033;-68
2022/10/15 10:52:49;;;;;;;17.80;11.68;;;;;;;-147.20;100.00;63046.97;31307556;28;20045;-68
2022/10/15 11:08:20;;;;;;;17.08;12.57;;;;;;;-147.20;100.00;63046.97;31308013;28;28074;-66
2022/10/15 11:23:57;;;;;;;21.77;13.30;;;;;;;-147.20;100.00;63046.97;31306028;28;20034;-67
2022/10/15 11:39:21;;;;;;;21.20;13.25;;;;;;;-147.20;100.00;63046.97;31304694;28;20038;-68
2022/10/15 11:54:38;;;;;;;16.20;11.73;;;;;;;-147.20;100.00;63046.97;31305318;28;20095;-67
2022/10/15 12:09:42;;;;;;;17.25;11.65;;;;;;;-147.20;100.00;63046.97;31303312;28;20138;-68
2022/10/15 12:24:49;;;;;;;16.48;11.95;;;;;;;-147.20;100.00;63046.97;31295946;28;20038;-64
2022/10/15 12:40:22;;;;;;;14.82;11.52;;;;;;;-147.20;100.00;63046.97;31297420;28;20060;-65
2022/10/15 12:55:24;;;;;;;18.92;13.13;;;;;;;-147.20;100.00;63046.97;31288669;28;20058;-66
2022/10/15 13:10:33;;;;;;;19.23;14.18;;;;;;;-147.20;100.00;63046.97;31298829;28;20120;-68
2022/10/15 13:25:33;;;;;;;20.35;14.98;;;;;;;-147.20;100.00;63046.97;31297286;28;20176;-67
2022/10/15 13:40:33;;;;;;;21.52;14.05;;;;;;;-147.20;100.00;63046.97;31307809;28;20125;-65
2022/10/15 13:55:37;;;;;;;20.38;15.30;;;;;;;-147.20;100.00;63046.97;31314558;28;20487;-65
2022/10/15 14:10:37;;;;;;;21.50;15.88;;;;;;;-147.20;100.00;63046.97;31312453;28;20160;-70
2022/10/15 14:25:38;;;;;;;21.63;17.00;;;;;;;-147.20;100.00;63046.97;31312337;28;20120;-67
2022/10/15 14:40:38;;;;;;;25.90;17.52;;;;;;;-147.20;100.00;63046.97;31311737;28;20430;-67
2022/10/15 14:55:42;;;;;;;24.35;18.33;;;;;;;-147.20;100.00;63046.97;31310299;28;20050;-67
2022/10/15 15:10:43;;;;;;;26.05;18.65;;;;;;;-147.20;100.00;63046.97;31328406;28;20046;-66
2022/10/15 15:25:45;;;;;;;26.55;18.38;;;;;;;-147.20;100.00;63046.97;31375105;28;20045;-67
2022/10/15 15:40:46;;;;;;;30.75;20.15;;;;;;;-147.20;100.00;63046.97;31368820;28;20038;-67
2022/10/15 15:55:46;;;;;;;32.80;21.33;;;;;;;-147.20;100.00;63046.97;31367682;28;20100;-67
2022/10/15 16:10:46;;;;;;;31.05;21.83;;;;;;;-147.20;100.00;63046.97;31357455;28;21942;-66
2022/10/15 16:25:47;;;;;;;33.55;20.92;;;;;;;-147.20;100.00;63046.97;31402544;28;20060;-66
2022/10/15 16:40:47;;;;;;;24.13;17.17;;;;;;;-147.20;100.00;63046.97;31321721;28;20037;-66
2022/10/15 16:55:48;;;;;;;29.02;16.85;;;;;;;-147.20;100.00;63046.97;31245836;28;27200;-65
2022/10/15 17:10:48;;;;;;;21.83;16.17;;;;;;;-147.20;100.00;63046.97;31359440;28;20166;-66
2022/10/15 17:25:48;;;;;;;17.30;12.40;;;;;;;-147.20;100.00;63046.97;31405053;28;20113;-65
2022/10/15 17:40:48;;;;;;;20.15;13.20;;;;;;;-147.20;100.00;63046.97;31429767;28;20112;-67
2022/10/15 17:55:49;;;;;;;15.82;12.70;;;;;;;-147.20;100.00;63046.97;31431443;28;20045;-68
2022/10/15 18:10:51;;;;;;;15.55;11.35;;;;;;;-147.20;100.00;63046.97;31428438;28;20032;-70
2022/10/15 18:26:03;;;;;;;15.47;11.40;;;;;;;-147.20;100.00;63046.97;31423584;28;20390;-66
2022/10/15 18:41:11;;;;;;;18.02;13.50;;;;;;;-147.20;100.00;63046.97;31423468;28;20044;-65
2022/10/15 18:56:12;;;;;;;18.50;14.45;;;;;;;-147.20;100.00;63046.97;31417893;28;20077;-65
2022/10/15 19:11:14;;;;;;;21.13;13.45;;;;;;;-147.20;100.00;63046.97;31421727;28;20041;-69
2022/10/15 19:26:15;;;;;;;23.70;16.15;;;;;;;-147.20;100.00;63046.97;31420238;28;20037;-69
2022/10/15 19:41:16;;;;;;;23.05;16.48;;;;;;;-147.20;100.00;63046.97;31417793;28;20041;-68
2022/10/15 19:56:17;;;;;;;19.42;13.60;;;;;;;-147.20;100.00;63046.97;31417342;28;20069;-67
2022/10/15 20:11:18;;;;;;;18.15;13.88;;;;;;;-147.20;100.00;63046.97;31417740;28;20065;-65
2022/10/15 20:26:19;;;;;;;18.95;14.85;;;;;;;-147.20;100.00;63046.97;31414695;28;20414;-65
2022/10/15 20:41:19;;;;;;;27.38;15.93;;;;;;;-147.20;100.00;63046.97;31412915;28;25227;-67
2022/10/15 20:56:20;;;;;;;20.92;15.10;;;;;;;-147.20;100.00;63046.97;31436461;28;20060;-65
2022/10/15 21:11:20;;;;;;;20.30;14.55;;;;;;;-147.20;100.00;63046.97;31435109;28;20068;-66
2022/10/15 21:26:21;;;;;;;18.55;12.85;;;;;;;-147.20;100.00;63046.97;31434717;28;20879;-65
2022/10/15 21:41:22;;;;;;;15.77;10.57;;;;;;;-147.20;100.00;63046.97;31409693;28;20719;-65
2022/10/15 21:56:23;;;;;;;18.70;12.13;;;;;;;-147.20;100.00;63046.97;31187928;28;20058;-66
2022/10/15 22:11:26;;;;;;;17.83;11.80;;;;;;;-147.20;100.00;63046.97;31190726;28;20066;-66
2022/10/15 22:26:34;;;;;;;18.20;11.27;;;;;;;-147.20;100.00;63046.97;31192483;28;20266;-68
2022/10/15 22:41:38;;;;;;;12.73;9.48;;;;;;;-147.20;100.00;63046.97;31191201;28;20038;-64
2022/10/15 22:56:38;;;;;;;11.05;8.27;;;;;;;-147.20;100.00;63046.97;31189805;28;20051;-66
2022/10/15 23:11:39;;;;;;;11.90;8.68;;;;;;;-147.20;100.00;63046.97;31247043;28;20034;-70
2022/10/15 23:26:40;;;;;;;12.73;8.75;;;;;;;-147.20;100.00;63046.97;31227974;28;20030;-68
2022/10/15 23:41:41;;;;;;;10.70;7.78;;;;;;;-147.20;100.00;63046.97;31186010;28;20085;-71
2022/10/15 23:56:41;;;;;;;11.43;7.28;;;;;;;-147.20;100.00;63046.97;31242306;28;20047;-67
